Latest Weather Observations for Broome Port

IDW60801

Issued at 5:33 pm WST Sunday 20 August 2017 (issued every 30 minutes, with the page automatically refreshed every 10 minutes)

About weather observations | Map of weather stations | Latest weather observations for WA | Other Formats
Station Details ID: 003102 Name: BROOME NTC AWS Lat: -18.00 Lon: 122.22 Height: 0.0 m
Data from the previous 72 hours. | See also: Recent months for locations in Western Australia
Date/Time
WST
Temp
°C
App
Temp
°C
Dew
Point
°C
Rel
Hum
%
Delta-T
°C
Wind Press
QNH
hPa
Press
MSL
hPa
Rain since
9am
mm
Dir  Spd
km/h
Gust
km/h
Spd
kts
Gust
kts
20/05:30pm 24.5 - - - - WNW 24 28 13 15 1010.9 1010.9 -
20/05:00pm 24.8 - - - - WNW 24 30 13 16 1010.9 1010.9 -
20/04:30pm 24.7 - - - - WNW 28 32 15 17 1010.7 1010.7 -
20/04:00pm 24.9 - - - - WNW 24 30 13 16 1010.7 1010.7 -
20/03:30pm 24.7 - - - - WNW 24 32 13 17 1010.7 1010.7 -
20/03:00pm 24.8 - - - - WNW 26 30 14 16 1010.9 1010.9 -
20/02:30pm 24.8 - - - - WNW 26 30 14 16 1011.0 1011.0 -
20/02:00pm 24.6 - - - - WNW 26 30 14 16 1011.3 1011.3 -
20/01:30pm 24.4 - - - - WNW 24 28 13 15 1011.8 1011.8 -
20/01:00pm 24.0 - - - - W 22 28 12 15 1012.5 1012.5 -
20/12:30pm 24.0 - - - - W 24 28 13 15 1013.0 1013.0 -
20/12:00pm 23.7 - - - - W 19 22 10 12 1013.5 1013.5 -
20/11:30am 23.3 - - - - WNW 17 20 9 11 1014.1 1014.1 -
20/11:00am 23.4 - - - - W 13 17 7 9 1014.5 1014.5 -
20/10:30am 23.1 - - - - WSW 15 19 8 10 1014.9 1014.9 -
20/10:00am 23.0 - - - - WSW 15 17 8 9 1015.3 1015.3 -
20/09:30am 22.9 - - - - SW 11 15 6 8 1015.6 1015.6 -
20/09:00am 23.1 - - - - SSW 7 13 4 7 1015.6 1015.6 -
20/08:30am 22.9 - - - - SW 13 17 7 9 1015.2 1015.2 -
20/08:00am 22.9 - - - - SW 7 11 4 6 1014.9 1014.9 -
20/07:30am 22.9 - - - - SSW 6 9 3 5 1014.8 1014.8 -
20/07:00am 22.6 - - - - SW 4 6 2 3 1014.4 1014.4 -
20/06:30am 21.9 - - - - NW 2 2 1 1 1014.1 1014.1 -
20/06:00am 21.9 - - - - NW 2 4 1 2 1013.9 1013.9 -
20/05:30am 21.3 - - - - N 2 4 1 2 1013.6 1013.6 -
20/05:00am 21.7 - - - - ENE 6 9 3 5 1013.4 1013.4 -
20/04:30am 22.6 - - - - SE 4 6 2 3 1013.0 1013.0 -
20/04:00am 22.9 - - - - SW 7 13 4 7 1012.8 1012.8 -
20/03:30am 23.0 - - - - SW 22 26 12 14 1012.4 1012.4 -
20/03:00am 22.9 - - - - SW 22 30 12 16 1012.2 1012.2 -
20/02:30am 22.9 - - - - SW 13 17 7 9 1012.9 1012.9 -
20/02:00am 23.0 - - - - SW 13 15 7 8 1012.9 1012.9 -
20/01:30am 23.0 - - - - SW 9 11 5 6 1013.0 1013.0 -
20/01:00am 23.1 - - - - SW 11 13 6 7 1013.2 1013.2 -
20/12:30am 23.4 - - - - SW 15 17 8 9 1013.3 1013.3 -
20/12:00am 23.5 - - - - SW 13 15 7 8 1013.6 1013.6 -
 
Date/Time
WST
Temp
°C
App
Temp
°C
Dew
Point
°C
Rel
Hum
%
Delta-T
°C
Wind Press
QNH
hPa
Press
MSL
hPa
Rain since
9am
mm
Dir  Spd
km/h
Gust
km/h
Spd
kts
Gust
kts
19/11:30pm 23.7 - - - - WSW 13 17 7 9 1013.8 1013.8 -
19/11:00pm 23.8 - - - - WSW 15 17 8 9 1013.7 1013.7 -
19/10:30pm 23.9 - - - - WSW 17 20 9 11 1013.6 1013.6 -
19/10:00pm 23.9 - - - - WSW 19 22 10 12 1013.5 1013.5 -
19/09:30pm 23.9 - - - - WSW 20 28 11 15 1013.3 1013.3 -
19/09:00pm 23.8 - - - - WSW 24 28 13 15 1013.2 1013.2 -
19/08:30pm 23.9 - - - - WSW 26 32 14 17 1013.1 1013.1 -
19/08:00pm 24.0 - - - - WSW 28 32 15 17 1012.8 1012.8 -
19/07:30pm 24.1 - - - - WSW 26 30 14 16 1012.4 1012.4 -
19/07:00pm 24.1 - - - - WSW 26 30 14 16 1012.3 1012.3 -
19/06:30pm 24.2 - - - - WSW 22 28 12 15 1011.9 1011.9 -
19/06:00pm 24.2 - - - - W 19 24 10 13 1011.8 1011.8 -
19/05:30pm 24.4 - - - - W 24 30 13 16 1011.6 1011.6 -
19/05:00pm 24.6 - - - - W 22 28 12 15 1011.5 1011.5 -
19/04:30pm 24.8 - - - - W 24 30 13 16 1011.1 1011.1 -
19/04:00pm 24.9 - - - - W 24 30 13 16 1011.0 1011.0 -
19/03:30pm 25.0 - - - - W 26 32 14 17 1010.8 1010.8 -
19/03:00pm 25.1 - - - - W 26 33 14 18 1010.8 1010.8 -
19/02:30pm 25.2 - - - - W 24 32 13 17 1011.1 1011.1 -
19/02:00pm 25.0 - - - - WNW 26 32 14 17 1011.3 1011.3 -
19/01:30pm 25.5 - - - - WNW 22 28 12 15 1011.7 1011.7 -
19/01:00pm 25.2 - - - - WNW 20 24 11 13 1012.2 1012.2 -
19/12:30pm 25.6 - - - - WNW 17 20 9 11 1012.8 1012.8 -
19/12:00pm 25.3 - - - - WNW 15 17 8 9 1013.2 1013.2 -
19/11:30am 24.8 - - - - NW 15 17 8 9 1013.7 1013.7 -
19/11:00am 24.5 - - - - WNW 13 15 7 8 1014.1 1014.1 -
19/10:30am 24.0 - - - - WNW 11 13 6 7 1014.6 1014.6 -
19/10:00am 24.1 - - - - WSW 9 11 5 6 1015.1 1015.1 -
19/09:30am 23.5 - - - - WSW 7 9 4 5 1015.4 1015.4 -
19/09:00am 23.1 - - - - SW 7 9 4 5 1015.5 1015.5 -
19/08:30am 23.2 - - - - SW 13 17 7 9 1015.3 1015.3 -
19/08:00am 23.4 - - - - SSW 15 20 8 11 1015.1 1015.1 -
19/07:30am 23.2 - - - - SW 17 22 9 12 1014.8 1014.8 -
19/07:00am 23.0 - - - - SW 15 20 8 11 1014.4 1014.4 -
19/06:30am 23.1 - - - - SW 17 20 9 11 1014.2 1014.2 -
19/06:00am 23.1 - - - - SW 15 17 8 9 1014.0 1014.0 -
19/05:30am 23.1 - - - - SW 13 15 7 8 1013.7 1013.7 -
19/05:00am 23.3 - - - - SW 11 15 6 8 1013.4 1013.4 -
19/04:30am 22.9 - - - - SSW 7 11 4 6 1013.1 1013.1 -
19/04:00am 23.2 - - - - WSW 11 13 6 7 1012.8 1012.8 -
19/03:30am 23.1 - - - - WSW 15 20 8 11 1012.5 1012.5 -
19/03:00am 22.9 - - - - WSW 15 19 8 10 1012.4 1012.4 -
19/02:30am 23.0 - - - - WSW 13 15 7 8 1012.5 1012.5 -
19/02:00am 22.9 - - - - W 9 13 5 7 1012.8 1012.8 -
19/01:30am 22.9 - - - - W 7 9 4 5 1013.0 1013.0 -
19/01:00am 23.3 - - - - W 9 11 5 6 1013.2 1013.2 -
19/12:30am 23.8 - - - - WSW 9 11 5 6 1013.2 1013.2 -
19/12:00am 23.4 - - - - W 6 7 3 4 1013.4 1013.4 -
 
Date/Time
WST
Temp
°C
App
Temp
°C
Dew
Point
°C
Rel
Hum
%
Delta-T
°C
Wind Press
QNH
hPa
Press
MSL
hPa
Rain since
9am
mm
Dir  Spd
km/h
Gust
km/h
Spd
kts
Gust
kts
18/11:30pm 23.6 - - - - W 6 7 3 4 1013.5 1013.5 -
18/11:00pm 23.7 - - - - WNW 7 9 4 5 1013.5 1013.5 -
18/10:30pm 23.7 - - - - WNW 7 9 4 5 1013.5 1013.5 -
18/10:00pm 23.8 - - - - WNW 7 9 4 5 1013.5 1013.5 -
18/09:30pm 24.0 - - - - W 7 9 4 5 1013.4 1013.4 -
18/09:00pm 24.1 - - - - W 7 11 4 6 1013.4 1013.4 -
18/08:30pm 24.3 - - - - W 9 13 5 7 1013.3 1013.3 -
18/08:00pm 24.3 - - - - WSW 11 15 6 8 1013.0 1013.0 -
18/07:30pm 24.4 - - - - W 9 13 5 7 1012.6 1012.6 -
18/07:00pm 24.4 - - - - WNW 4 9 2 5 1012.0 1012.0 -
18/06:30pm 24.6 - - - - W 4 15 2 8 1011.3 1011.3 -
18/06:00pm 25.4 - - - - WNW 22 30 12 16 1010.9 1010.9 -
18/05:30pm 26.1 - - - - WNW 22 26 12 14 1010.6 1010.6 -
18/05:00pm 27.5 - - - - WNW 22 26 12 14 1010.3 1010.3 -
18/04:30pm 28.1 - - - - WNW 22 24 12 13 1010.0 1010.0 -
18/04:00pm 29.4 - - - - WNW 22 24 12 13 1009.7 1009.7 -
18/03:30pm 28.8 - - - - WNW 20 26 11 14 1009.6 1009.6 -
18/03:00pm 32.8 - - - - SW 13 13 7 7 1009.4 1009.4 -
18/02:30pm 32.8 - - - - SW 9 13 5 7 1009.6 1009.6 -
18/02:00pm 33.5 - - - - SSW 9 9 5 5 1009.9 1009.9 -
18/01:30pm 32.1 - - - - S 9 11 5 6 1010.2 1010.2 -
18/01:00pm 32.2 - - - - SE 11 15 6 8 1010.6 1010.6 -
18/12:30pm 30.4 - - - - ESE 15 19 8 10 1011.0 1011.0 -
18/12:00pm 30.1 - - - - ESE 19 20 10 11 1011.5 1011.5 -
18/11:30am 30.1 - - - - ESE 20 22 11 12 1011.9 1011.9 -
18/11:00am 26.6 - - - - ESE 13 17 7 9 1012.4 1012.4 -
18/10:30am 25.8 - - - - ESE 11 15 6 8 1013.0 1013.0 -
18/10:00am 25.2 - - - - ESE 13 17 7 9 1013.5 1013.5 -
18/09:30am 23.6 - - - - ESE 17 20 9 11 1013.8 1013.8 -
18/09:00am 22.2 - - - - ESE 13 17 7 9 1013.9 1013.9 -
18/08:30am 21.9 - - - - ESE 11 13 6 7 1013.6 1013.6 -
18/08:00am 22.2 - - - - SE 11 15 6 8 1013.4 1013.4 -
18/07:30am 22.5 - - - - SE 13 17 7 9 1013.3 1013.3 -
18/07:00am 22.2 - - - - SE 13 15 7 8 1012.9 1012.9 -
18/06:30am 22.1 - - - - SE 13 15 7 8 1012.8 1012.8 -
18/06:00am 22.1 - - - - ESE 15 17 8 9 - - -
18/05:30am 22.2 - - - - ESE 15 17 8 9 - - -
18/05:00am 22.4 - - - - SE 17 19 9 10 1011.9 1011.9 -
18/04:30am 22.9 - - - - SE 17 20 9 11 1011.8 1011.8 -
18/04:00am 23.0 - - - - SE 11 17 6 9 1011.5 1011.5 -
18/03:30am 22.6 - - - - SE 13 15 7 8 1011.2 1011.2 -
18/03:00am 22.8 - - - - SSE 13 15 7 8 1010.9 1010.9 -
18/02:30am 23.5 - - - - SSE 17 19 9 10 1010.8 1010.8 -
18/02:00am 24.4 - - - - SSE 19 19 10 10 1010.8 1010.8 -
18/01:30am 25.5 - - - - SSE 15 17 8 9 1010.9 1010.9 -
18/01:00am 26.1 - - - - SSW 11 15 6 8 1010.9 1010.9 -
18/12:30am 26.0 - - - - SSW 15 17 8 9 1010.9 1010.9 -
18/12:00am 25.5 - - - - SW 17 19 9 10 1011.0 1011.0 -
 
Date/Time
WST
Temp
°C
App
Temp
°C
Dew
Point
°C
Rel
Hum
%
Delta-T
°C
Wind Press
QNH
hPa
Press
MSL
hPa
Rain since
9am
mm
Dir  Spd
km/h
Gust
km/h
Spd
kts
Gust
kts
17/11:30pm 24.3 - - - - WSW 17 20 9 11 1011.2 1011.2 -
17/11:00pm 24.3 - - - - W 17 22 9 12 1011.3 1011.3 -
17/10:30pm 23.6 - - - - WNW 13 17 7 9 1011.4 1011.4 -
17/10:00pm 24.6 - - - - W 15 19 8 10 1011.4 1011.4 -
17/09:30pm 24.8 - - - - WSW 17 20 9 11 1011.3 1011.3 -
17/09:00pm 24.8 - - - - W 15 19 8 10 1011.1 1011.1 -
17/08:30pm 24.5 - - - - WSW 15 17 8 9 1011.0 1011.0 -
17/08:00pm 24.8 - - - - WSW 19 22 10 12 1010.9 1010.9 -
17/07:30pm 24.8 - - - - WSW 20 24 11 13 1010.5 1010.5 -
17/07:00pm 24.4 - - - - WSW 22 24 12 13 1010.1 1010.1 -
17/06:30pm 24.8 - - - - WSW 22 26 12 14 1009.6 1009.6 -
17/06:00pm 24.8 - - - - WSW 24 28 13 15 1009.3 1009.3 -

Other Formats:

Comma delimited format used in spreadsheet applications
http://www.bom.gov.au/fwo/IDW60801/IDW60801.95202.axf

JavaScript Object Notation format (JSON) in row-major order
http://www.bom.gov.au/fwo/IDW60801/IDW60801.95202.json